ADDS METAR Data INFO
IDs: Format: Raw Decoded Include TAF

Data at: 2237 UTC 11 Dec 2017

KSBN 112154Z 14008KT 8SM SCT110 M01/M03 A2971 RMK AO2 SLP070 T10061033
KSBN 112054Z 13008KT 8SM CLR M01/M03 A2971 RMK AO2 SLP070 T10061033 56038
KSBN 111954Z 14012KT 8SM OVC070 M01/M03 A2973 RMK AO2 SLP078 T10061033
KSBN 111854Z 14009KT 9SM BKN100 M01/M04 A2977 RMK AO2 SLP090 T10111044
KSBN 111754Z 18008KT 10SM BKN110 M01/M04 A2983 RMK AO2 SLP108 60000 T10111044 11011 21044 58040
KSBN 111654Z COR 18010KT 10SM OVC065 M02/M05 A2988 RMK AO2 SLP127 T10171050
KSBN 111554Z 18011KT 10SM OVC065 M02/M06 A2993 RMK AO2 SLP144 T10221056
KSBN 111454Z 18010KT 10SM BKN070 OVC080 M03/M05 A2995 RMK AO2 SNE11 SLP151 P0000 60000 T10281050 57026
KSBN 111354Z 20005KT 4SM -SN BR OVC040 M04/M06 A2998 RMK AO2 SNB19 SLP162 P0000 T10391056
KSBN 111254Z 19006KT 10SM OVC065 M04/M06 A2999 RMK AO2 SLP168 T10441061
KSBN 111154Z 22006KT 10SM BKN060 OVC080 M04/M06 A3003 RMK AO2 SLP178 T10391061 11017 21044 55002
KSBN 111054Z 22007KT 10SM FEW027 SCT120 M04/M06 A3002 RMK AO2 SLP175 T10391061
KSBN 110954Z AUTO 21006KT 10SM OVC026 M03/M06 A3001 RMK AO2 SLP173 T10331056
KSBN 110854Z AUTO 22004KT 10SM OVC029 M03/M06 A3003 RMK AO2 SLP180 T10331061 58003
KSBN 110754Z AUTO 23004KT 10SM OVC030 M03/M06 A3004 RMK AO2 SLP184 T10281056
KSBN 110716Z AUTO 25006KT 10SM OVC029 M03/M06 A3005 RMK AO2 T10281056
KSBN 110654Z AUTO 26006KT 10SM OVC031 M03/M06 A3004 RMK AO2 SLP183 T10281056
KSBN 110627Z AUTO 31004KT 10SM OVC030 M02/M06 A3004 RMK AO2 T10221056
KSBN 110554Z AUTO 31006KT 10SM OVC029 M02/M06 A3006 RMK AO2 SLP188 T10171056 11011 21022 51007
KSBN 110537Z AUTO 33008KT 10SM OVC029 M02/M06 A3005 RMK AO2 T10171056
KSBN 110454Z AUTO 29006KT 10SM OVC032 M02/M05 A3005 RMK AO2 SLP188 T10171050 410111089
KSBN 110423Z 30005KT 10SM FEW024 OVC031 M02/M04 A3005 RMK AO2 T10171044
KSBN 110354Z 31006KT 10SM BKN026 OVC032 M02/M05 A3005 RMK AO2 SLP186 T10171050
KSBN 110335Z 33009KT 10SM FEW024 OVC030 M01/M05 A3004 RMK AO2 T10111050
KSBN 110254Z 32009KT 10SM OVC025 M01/M04 A3004 RMK AO2 SLP182 T10111044 53016
KSBN 110154Z 32008KT 10SM OVC023 M01/M04 A3002 RMK AO2 SLP175 T10111039
KSBN 110054Z 31009KT 10SM OVC023 M01/M04 A3001 RMK AO2 SLP172 T10111039
KSBN 102354Z 31010KT 10SM OVC022 M01/M04 A2999 RMK AO2 SLP166 T10111039 11011 21028 53027
KSBN 102254Z 28006KT 10SM OVC022 M01/M04 A2995 RMK AO2 SLP154 T10111039
KSBN 102154Z 29008KT 10SM OVC027 M01/M04 A2993 RMK AO2 SLP147 T10111044
KSBN 102135Z 30008KT 10SM BKN028 OVC033 M01/M04 A2992 RMK AO2 T10111044
KSBN 102115Z 30010KT 10SM OVC030 M01/M05 A2992 RMK AO2 T10111050
KSBN 102054Z 29006KT 10SM BKN028 OVC034 M01/M05 A2991 RMK AO2 SLP139 T10111050 53005
KSBN 101954Z 25009KT 10SM OVC032 M01/M06 A2988 RMK AO2 SLP128 T10111056
KSBN 101854Z 24011KT 10SM OVC032 M02/M06 A2988 RMK AO2 SLP130 T10171056
KSBN 101754Z 23013KT 10SM CLR M03/M07 A2989 RMK AO2 SLP132 T10281067 11028 21083 56021
KSBN 101654Z 21015KT 10SM CLR M04/M07 A2991 RMK AO2 SLP139 T10391072
KSBN 101554Z 21014G20KT 10SM BKN110 M04/M08 A2993 RMK AO2 SLP145 T10441078
KSBN 101454Z 20010KT 10SM OVC090 M06/M08 A2995 RMK AO2 SLP154 T10611083 58011
KSBN 101354Z 21011KT 10SM OVC090 M07/M09 A2997 RMK AO2 SLP160 T10721094
KSBN 101254Z 22009KT 10SM OVC055 M08/M09 A2998 RMK AO2 SLP164 T10781094
KSBN 101154Z 23010KT 10SM OVC070 M08/M10 A2999 RMK AO2 SLP167 70035 T10831100 11033 21089 55004
KSBN 101054Z 22007KT 10SM OVC095 M08/M11 A2998 RMK AO2 SLP165 T10831106